createdAt,value
2023-05-20T00:00:47.883Z,323.00
2023-05-20T00:01:47.953Z,322.00
2023-05-20T00:02:48.233Z,323.00
2023-05-20T00:03:48.301Z,321.00
2023-05-20T00:04:48.337Z,321.00
2023-05-20T00:05:48.448Z,319.00
2023-05-20T00:06:48.406Z,318.00
2023-05-20T00:07:48.386Z,318.00
2023-05-20T00:08:48.413Z,318.00
2023-05-20T00:09:48.461Z,318.00
2023-05-20T00:10:48.458Z,319.00
2023-05-20T00:11:48.534Z,317.00
2023-05-20T00:12:48.642Z,317.00
2023-05-20T00:13:48.747Z,315.00
2023-05-20T00:14:48.729Z,318.00
2023-05-20T00:15:48.770Z,318.00
2023-05-20T00:16:48.806Z,318.00
2023-05-20T00:17:48.896Z,318.00
2023-05-20T00:18:48.872Z,318.00
2023-05-20T00:19:48.902Z,319.00
2023-05-20T00:20:48.903Z,317.00
2023-05-20T00:21:48.875Z,317.00
2023-05-20T00:22:48.976Z,319.00
2023-05-20T00:23:48.982Z,319.00
2023-05-20T00:24:48.979Z,318.00
2023-05-20T00:25:49.020Z,317.00
2023-05-20T00:26:48.976Z,320.00
2023-05-20T00:27:49.002Z,321.00
2023-05-20T00:28:49.058Z,324.00
2023-05-20T00:29:49.019Z,324.00
2023-05-20T00:30:49.045Z,321.00
2023-05-20T00:31:49.120Z,319.00
2023-05-20T00:32:49.095Z,317.00
2023-05-20T00:33:49.146Z,317.00
2023-05-20T00:34:49.132Z,319.00
2023-05-20T00:35:49.152Z,320.00
2023-05-20T00:36:49.152Z,321.00
2023-05-20T00:37:49.172Z,320.00
2023-05-20T00:38:49.177Z,319.00
2023-05-20T00:39:49.202Z,318.00
2023-05-20T00:40:49.206Z,318.00
2023-05-20T00:41:49.240Z,319.00
2023-05-20T00:42:49.331Z,318.00
2023-05-20T00:43:49.313Z,318.00
2023-05-20T00:44:49.309Z,319.00
2023-05-20T00:45:49.376Z,319.00
2023-05-20T00:46:49.346Z,323.00
2023-05-20T00:47:49.452Z,322.00
2023-05-20T00:48:49.382Z,324.00
2023-05-20T00:49:50.450Z,322.00
2023-05-20T00:50:49.459Z,320.00
2023-05-20T00:51:49.466Z,318.00
2023-05-20T00:52:49.453Z,319.00
2023-05-20T00:53:49.486Z,320.00
2023-05-20T00:54:49.515Z,320.00
2023-05-20T00:55:49.511Z,322.00
2023-05-20T00:56:49.589Z,321.00
2023-05-20T00:57:49.607Z,320.00
2023-05-20T00:58:49.605Z,320.00
2023-05-20T00:59:49.632Z,321.00
2023-05-20T01:00:49.655Z,320.00
2023-05-20T01:01:49.665Z,320.00
2023-05-20T01:02:49.752Z,321.00
2023-05-20T01:03:49.755Z,320.00
2023-05-20T01:04:49.780Z,318.00
2023-05-20T01:05:49.750Z,317.00
2023-05-20T01:06:49.768Z,319.00
2023-05-20T01:07:49.809Z,318.00
2023-05-20T01:08:49.841Z,317.00
2023-05-20T01:09:49.840Z,314.00
2023-05-20T01:10:49.888Z,314.00
2023-05-20T01:11:49.893Z,313.00
2023-05-20T01:12:49.955Z,312.00
2023-05-20T01:13:49.967Z,312.00
2023-05-20T01:14:50.034Z,311.00
2023-05-20T01:15:50.040Z,314.00
2023-05-20T01:16:50.086Z,314.00
2023-05-20T01:17:50.170Z,316.00
2023-05-20T01:18:50.166Z,315.00
2023-05-20T01:19:50.146Z,314.00
2023-05-20T01:20:50.157Z,311.00
2023-05-20T01:21:50.220Z,309.00
2023-05-20T01:22:50.247Z,310.00
2023-05-20T01:23:50.292Z,311.00
2023-05-20T01:24:50.289Z,310.00
2023-05-20T01:25:50.327Z,311.00
2023-05-20T01:26:50.411Z,309.00
2023-05-20T01:27:50.403Z,308.00
2023-05-20T01:28:50.471Z,308.00
2023-05-20T01:29:50.462Z,307.00
2023-05-20T01:30:50.491Z,308.00
2023-05-20T01:31:50.617Z,311.00
2023-05-20T01:32:50.563Z,311.00
2023-05-20T01:33:50.618Z,313.00
2023-05-20T01:34:50.658Z,314.00
2023-05-20T01:35:50.688Z,314.00
2023-05-20T01:36:50.703Z,313.00
2023-05-20T01:37:50.792Z,313.00
2023-05-20T01:38:50.788Z,316.00
2023-05-20T01:39:50.855Z,317.00
2023-05-20T01:40:50.878Z,316.00
2023-05-20T01:41:50.922Z,318.00
2023-05-20T01:42:50.974Z,314.00
2023-05-20T01:43:50.966Z,314.00
2023-05-20T01:44:51.031Z,313.00
2023-05-20T01:45:51.057Z,315.00
2023-05-20T01:46:51.154Z,312.00
2023-05-20T01:47:51.197Z,312.00
2023-05-20T01:48:51.130Z,313.00
2023-05-20T01:49:51.219Z,313.00
2023-05-20T01:50:51.232Z,313.00
2023-05-20T01:51:51.248Z,312.00
2023-05-20T01:52:51.327Z,313.00
2023-05-20T01:53:51.343Z,313.00
2023-05-20T01:54:51.408Z,315.00
2023-05-20T01:55:51.430Z,314.00
2023-05-20T01:56:51.481Z,313.00
2023-05-20T01:57:51.485Z,312.00
2023-05-20T01:58:51.521Z,312.00
2023-05-20T01:59:51.586Z,312.00
2023-05-20T02:00:51.627Z,316.00
2023-05-20T02:01:51.764Z,315.00
2023-05-20T02:02:51.729Z,314.00
2023-05-20T02:03:51.737Z,313.00
2023-05-20T02:04:51.826Z,313.00
2023-05-20T02:05:51.838Z,311.00
2023-05-20T02:06:51.818Z,312.00
2023-05-20T02:07:51.847Z,314.00
2023-05-20T02:08:51.889Z,315.00
2023-05-20T02:09:51.915Z,312.00
2023-05-20T02:10:51.980Z,309.00
2023-05-20T02:11:52.000Z,309.00
2023-05-20T02:12:52.148Z,307.00
2023-05-20T02:13:52.051Z,309.00
2023-05-20T02:14:52.099Z,307.00
2023-05-20T02:15:52.175Z,308.00
2023-05-20T02:16:52.267Z,309.00
2023-05-20T02:17:52.335Z,309.00
2023-05-20T02:18:52.352Z,307.00
2023-05-20T02:19:52.345Z,304.00
2023-05-20T02:20:52.407Z,304.00
2023-05-20T02:21:52.438Z,306.00
2023-05-20T02:22:52.467Z,306.00
2023-05-20T02:23:52.500Z,305.00
2023-05-20T02:24:52.543Z,306.00
2023-05-20T02:25:52.576Z,307.00
2023-05-20T02:26:52.633Z,308.00
2023-05-20T02:27:52.662Z,310.00
2023-05-20T02:28:52.750Z,312.00
2023-05-20T02:29:52.779Z,311.00
2023-05-20T02:30:52.788Z,314.00
2023-05-20T02:31:52.826Z,315.00
2023-05-20T02:32:52.894Z,313.00
2023-05-20T02:33:52.976Z,314.00
2023-05-20T02:34:52.944Z,314.00
2023-05-20T02:35:52.983Z,313.00
2023-05-20T02:36:53.077Z,312.00
2023-05-20T02:37:53.080Z,311.00
2023-05-20T02:38:53.161Z,310.00
2023-05-20T02:39:53.190Z,311.00
2023-05-20T02:40:53.222Z,310.00
2023-05-20T02:41:53.279Z,308.00
2023-05-20T02:42:53.338Z,306.00
2023-05-20T02:43:53.391Z,306.00
2023-05-20T02:44:53.416Z,308.00
2023-05-20T02:45:53.455Z,307.00
2023-05-20T02:46:53.518Z,305.00
2023-05-20T02:47:53.600Z,304.00
2023-05-20T02:48:53.564Z,303.00
2023-05-20T02:49:53.608Z,303.00
2023-05-20T02:50:53.701Z,303.00
2023-05-20T02:51:53.704Z,306.00
2023-05-20T02:52:53.758Z,306.00
2023-05-20T02:53:53.819Z,308.00
2023-05-20T02:54:53.909Z,308.00
2023-05-20T02:55:53.941Z,306.00
2023-05-20T02:56:53.981Z,304.00
2023-05-20T02:57:54.042Z,303.00
2023-05-20T02:58:54.090Z,304.00
2023-05-20T02:59:54.148Z,304.00
2023-05-20T03:00:54.215Z,303.00
2023-05-20T03:01:54.309Z,302.00
2023-05-20T03:02:54.407Z,303.00
2023-05-20T03:03:54.440Z,303.00
2023-05-20T03:04:54.617Z,305.00
2023-05-20T03:05:54.512Z,305.00
2023-05-20T03:06:54.660Z,305.00
2023-05-20T03:07:54.695Z,306.00
2023-05-20T03:08:54.647Z,307.00
2023-05-20T03:09:54.726Z,308.00
2023-05-20T03:10:54.750Z,309.00
2023-05-20T03:11:54.842Z,309.00
2023-05-20T03:12:54.924Z,307.00
2023-05-20T03:13:54.954Z,307.00
2023-05-20T03:14:55.044Z,309.00
2023-05-20T03:15:55.085Z,309.00
2023-05-20T03:16:55.142Z,311.00
2023-05-20T03:17:55.188Z,310.00
2023-05-20T03:18:55.201Z,310.00
2023-05-20T03:19:55.273Z,308.00
2023-05-20T03:20:55.364Z,311.00
2023-05-20T03:21:55.397Z,314.00
2023-05-20T03:22:55.486Z,314.00
2023-05-20T03:23:55.551Z,313.00
2023-05-20T03:24:55.542Z,311.00
2023-05-20T03:25:55.614Z,313.00
2023-05-20T03:26:55.683Z,312.00
2023-05-20T03:27:55.714Z,313.00
2023-05-20T03:28:55.793Z,311.00
2023-05-20T03:29:55.849Z,311.00
2023-05-20T03:30:55.915Z,311.00
2023-05-20T03:31:55.951Z,308.00
2023-05-20T03:32:56.028Z,307.00
2023-05-20T03:33:56.065Z,307.00
2023-05-20T03:34:56.122Z,306.00
2023-05-20T03:35:56.194Z,306.00
2023-05-20T03:36:56.231Z,308.00
2023-05-20T03:37:56.302Z,308.00
2023-05-20T03:38:56.370Z,306.00
2023-05-20T03:39:56.436Z,306.00
2023-05-20T03:40:56.515Z,304.00
2023-05-20T03:41:56.535Z,307.00
2023-05-20T03:42:56.601Z,306.00
2023-05-20T03:43:56.643Z,304.00
2023-05-20T03:44:56.727Z,307.00
2023-05-20T03:45:56.789Z,306.00
2023-05-20T03:46:57.015Z,306.00
2023-05-20T03:47:56.904Z,302.00
2023-05-20T03:48:56.944Z,302.00
2023-05-20T03:49:57.034Z,301.00
2023-05-20T03:50:57.043Z,302.00
2023-05-20T03:51:57.135Z,303.00
2023-05-20T03:52:57.165Z,305.00
2023-05-20T03:53:57.240Z,306.00
2023-05-20T03:54:57.279Z,308.00
2023-05-20T03:55:57.332Z,303.00
2023-05-20T03:56:57.388Z,302.00
2023-05-20T03:57:57.499Z,302.00
2023-05-20T03:58:57.463Z,300.00
2023-05-20T03:59:57.495Z,301.00
2023-05-20T04:00:57.590Z,302.00
2023-05-20T04:01:57.640Z,304.00
2023-05-20T04:02:57.756Z,306.00
2023-05-20T04:03:57.776Z,310.00
2023-05-20T04:04:57.853Z,310.00
2023-05-20T04:05:57.876Z,311.00
2023-05-20T04:06:57.944Z,309.00
2023-05-20T04:07:57.987Z,306.00
2023-05-20T04:08:58.050Z,308.00
2023-05-20T04:09:58.099Z,308.00
2023-05-20T04:10:58.168Z,309.00
2023-05-20T04:11:58.215Z,310.00
2023-05-20T04:12:58.277Z,310.00
2023-05-20T04:13:58.328Z,309.00
2023-05-20T04:14:58.390Z,308.00
2023-05-20T04:15:58.448Z,307.00
2023-05-20T04:16:58.473Z,306.00
2023-05-20T04:17:58.612Z,305.00
2023-05-20T04:18:58.606Z,305.00
2023-05-20T04:19:58.631Z,304.00
2023-05-20T04:20:58.686Z,302.00
2023-05-20T04:21:58.763Z,303.00
2023-05-20T04:22:58.805Z,301.00
2023-05-20T04:23:58.817Z,301.00
2023-05-20T04:24:58.920Z,302.00
2023-05-20T04:25:58.943Z,301.00
2023-05-20T04:26:59.000Z,303.00
2023-05-20T04:27:59.048Z,301.00
2023-05-20T04:28:59.149Z,300.00
2023-05-20T04:29:59.166Z,301.00
2023-05-20T04:30:59.178Z,302.00
2023-05-20T04:31:59.234Z,301.00
2023-05-20T04:32:59.323Z,301.00
2023-05-20T04:33:59.341Z,303.00
2023-05-20T04:34:59.354Z,304.00
2023-05-20T04:35:59.412Z,303.00
2023-05-20T04:36:59.463Z,304.00
2023-05-20T04:37:59.521Z,306.00
2023-05-20T04:38:59.546Z,304.00
2023-05-20T04:39:59.578Z,306.00
2023-05-20T04:40:59.650Z,304.00
2023-05-20T04:41:59.698Z,301.00
2023-05-20T04:42:59.775Z,301.00
2023-05-20T04:43:59.834Z,302.00
2023-05-20T04:44:59.781Z,302.00
2023-05-20T04:45:59.911Z,305.00
2023-05-20T04:46:59.891Z,306.00
2023-05-20T04:47:59.958Z,306.00
2023-05-20T04:48:59.915Z,305.00
2023-05-20T04:49:59.973Z,304.00
2023-05-20T04:51:00.018Z,305.00
2023-05-20T04:52:00.043Z,305.00
2023-05-20T04:53:00.132Z,306.00
2023-05-20T04:54:00.167Z,305.00
2023-05-20T04:55:00.157Z,301.00
2023-05-20T04:56:00.212Z,304.00
2023-05-20T04:57:00.259Z,305.00
2023-05-20T04:58:00.366Z,309.00
2023-05-20T04:59:00.321Z,306.00
2023-05-20T05:00:00.331Z,307.00
2023-05-20T05:01:00.346Z,303.00
2023-05-20T05:02:00.582Z,304.00
2023-05-20T05:03:00.502Z,304.00
2023-05-20T05:04:00.476Z,302.00
2023-05-20T05:05:00.486Z,301.00
2023-05-20T05:06:00.537Z,300.00
2023-05-20T05:07:00.525Z,299.00
2023-05-20T05:08:00.637Z,298.00
2023-05-20T05:09:00.565Z,296.00
2023-05-20T05:10:00.624Z,296.00
2023-05-20T05:11:00.735Z,298.00
2023-05-20T05:12:00.832Z,299.00
2023-05-20T05:13:00.928Z,299.00
2023-05-20T05:14:00.977Z,302.00
2023-05-20T05:15:01.121Z,301.00
2023-05-20T05:16:01.213Z,302.00
2023-05-20T05:17:01.116Z,304.00
2023-05-20T05:18:01.170Z,305.00
2023-05-20T05:19:01.236Z,307.00
2023-05-20T05:20:01.181Z,307.00
2023-05-20T05:21:01.154Z,305.00
2023-05-20T05:22:01.205Z,302.00
2023-05-20T05:23:01.218Z,301.00
2023-05-20T05:24:01.277Z,303.00
2023-05-20T05:25:01.232Z,302.00
2023-05-20T05:26:01.244Z,302.00
2023-05-20T05:27:01.230Z,303.00
2023-05-20T05:28:01.256Z,308.00
2023-05-20T05:29:01.246Z,308.00
2023-05-20T05:30:01.306Z,310.00
2023-05-20T05:31:01.316Z,310.00
2023-05-20T05:32:01.298Z,310.00
2023-05-20T05:33:01.532Z,308.00
2023-05-20T05:34:01.280Z,304.00
2023-05-20T05:35:01.353Z,304.00
2023-05-20T05:36:01.509Z,306.00
2023-05-20T05:37:01.480Z,303.00
2023-05-20T05:38:01.538Z,303.00
2023-05-20T05:39:01.514Z,301.00
2023-05-20T05:40:01.508Z,301.00
2023-05-20T05:41:01.543Z,302.00
2023-05-20T05:42:01.585Z,301.00
2023-05-20T05:43:01.652Z,302.00
2023-05-20T05:44:01.709Z,303.00
2023-05-20T05:45:01.766Z,305.00
2023-05-20T05:46:01.825Z,304.00
2023-05-20T05:47:01.955Z,304.00
2023-05-20T05:48:01.997Z,304.00
2023-05-20T05:49:02.013Z,306.00
2023-05-20T05:50:02.074Z,308.00
2023-05-20T05:51:02.250Z,307.00
2023-05-20T05:52:02.178Z,302.00
2023-05-20T05:53:02.230Z,298.00
2023-05-20T05:54:02.305Z,299.00
2023-05-20T05:55:02.344Z,301.00
2023-05-20T05:56:02.401Z,300.00
2023-05-20T05:57:03.216Z,301.00
2023-05-20T05:58:02.516Z,301.00
2023-05-20T05:59:02.588Z,300.00
2023-05-20T06:00:02.627Z,301.00
2023-05-20T06:01:02.698Z,303.00
2023-05-20T06:02:02.795Z,303.00
2023-05-20T06:03:02.911Z,305.00
2023-05-20T06:04:02.999Z,306.00
2023-05-20T06:05:02.923Z,305.00
2023-05-20T06:06:02.989Z,306.00
2023-05-20T06:07:03.037Z,305.00
2023-05-20T06:08:03.063Z,304.00
2023-05-20T06:09:03.176Z,299.00
2023-05-20T06:10:03.293Z,302.00
2023-05-20T06:11:03.269Z,300.00
2023-05-20T06:12:03.302Z,302.00
2023-05-20T06:13:03.431Z,302.00
2023-05-20T06:14:03.466Z,302.00
2023-05-20T06:15:03.505Z,302.00
2023-05-20T06:16:03.705Z,301.00
2023-05-20T06:17:03.719Z,300.00
2023-05-20T06:18:03.717Z,301.00
2023-05-20T06:19:03.995Z,304.00
2023-05-20T06:20:03.816Z,303.00
2023-05-20T06:21:03.920Z,302.00
2023-05-20T06:22:03.882Z,302.00
2023-05-20T06:23:03.956Z,302.00
2023-05-20T06:24:04.002Z,302.00
2023-05-20T06:25:04.070Z,304.00
2023-05-20T06:26:04.159Z,303.00
2023-05-20T06:27:04.192Z,303.00
2023-05-20T06:28:04.243Z,305.00
2023-05-20T06:29:04.318Z,305.00
2023-05-20T06:30:04.365Z,307.00
2023-05-20T06:31:04.440Z,308.00
2023-05-20T06:32:04.710Z,308.00
2023-05-20T06:33:04.611Z,307.00
2023-05-20T06:34:04.578Z,312.00
2023-05-20T06:35:04.607Z,309.00
2023-05-20T06:36:04.715Z,305.00
2023-05-20T06:37:04.720Z,305.00
2023-05-20T06:38:04.832Z,305.00
2023-05-20T06:39:04.835Z,305.00
2023-05-20T06:40:04.902Z,306.00
2023-05-20T06:41:04.935Z,305.00
2023-05-20T06:42:04.951Z,306.00
2023-05-20T06:43:05.008Z,306.00
2023-05-20T06:44:05.075Z,307.00
2023-05-20T06:45:05.210Z,307.00
2023-05-20T06:46:05.162Z,308.00
2023-05-20T06:47:05.163Z,308.00
2023-05-20T06:48:05.232Z,308.00
2023-05-20T06:49:05.269Z,308.00
2023-05-20T06:50:05.270Z,307.00
2023-05-20T06:51:05.279Z,309.00
2023-05-20T06:52:05.343Z,308.00
2023-05-20T06:53:05.290Z,307.00
2023-05-20T06:54:05.293Z,306.00
2023-05-20T06:55:05.367Z,303.00
2023-05-20T06:56:05.425Z,304.00
2023-05-20T06:57:05.347Z,306.00
2023-05-20T06:58:05.327Z,307.00
2023-05-20T06:59:05.333Z,307.00
2023-05-20T07:00:05.335Z,308.00
2023-05-20T07:01:05.359Z,306.00
2023-05-20T07:02:05.425Z,306.00
2023-05-20T07:03:05.419Z,308.00
2023-05-20T07:04:05.435Z,307.00
2023-05-20T07:05:05.409Z,305.00
2023-05-20T07:06:05.482Z,302.00
2023-05-20T07:07:05.484Z,301.00
2023-05-20T07:08:05.550Z,303.00
2023-05-20T07:09:05.665Z,302.00
2023-05-20T07:10:05.660Z,305.00
2023-05-20T07:11:05.774Z,306.00
2023-05-20T07:12:05.776Z,305.00
2023-05-20T07:13:05.845Z,304.00
2023-05-20T07:14:05.885Z,304.00
2023-05-20T07:15:05.958Z,305.00
2023-05-20T07:16:06.045Z,303.00
2023-05-20T07:17:06.065Z,304.00
2023-05-20T07:18:06.142Z,306.00
2023-05-20T07:19:06.266Z,304.00
2023-05-20T07:20:06.192Z,303.00
2023-05-20T07:21:06.297Z,302.00
2023-05-20T07:22:06.314Z,300.00
2023-05-20T07:23:06.366Z,302.00
2023-05-20T07:24:06.434Z,302.00
2023-05-20T07:25:06.466Z,304.00
2023-05-20T07:26:06.553Z,302.00
2023-05-20T07:27:06.572Z,301.00
2023-05-20T07:28:06.655Z,304.00
2023-05-20T07:29:06.658Z,303.00
2023-05-20T07:30:06.701Z,304.00
2023-05-20T07:31:06.782Z,305.00
2023-05-20T07:32:06.839Z,307.00
2023-05-20T07:33:06.888Z,304.00
2023-05-20T07:34:06.840Z,304.00
2023-05-20T07:35:06.917Z,304.00
2023-05-20T07:36:08.013Z,303.00
2023-05-20T07:37:06.961Z,306.00
2023-05-20T07:38:06.924Z,306.00
2023-05-20T07:39:10.364Z,305.00
2023-05-20T07:40:07.916Z,307.00
2023-05-20T07:41:06.951Z,307.00
2023-05-20T07:42:06.955Z,307.00
2023-05-20T07:43:06.901Z,305.00
2023-05-20T07:44:06.910Z,304.00
2023-05-20T07:45:06.867Z,303.00
2023-05-20T07:46:06.904Z,303.00
2023-05-20T07:47:06.933Z,305.00
2023-05-20T07:48:06.939Z,304.00
2023-05-20T07:49:06.921Z,306.00
2023-05-20T07:50:06.839Z,310.00
2023-05-20T07:51:06.843Z,309.00
2023-05-20T07:52:06.837Z,308.00
2023-05-20T07:53:06.866Z,306.00
2023-05-20T07:54:06.853Z,304.00
2023-05-20T07:55:06.896Z,305.00
2023-05-20T07:56:06.993Z,305.00
2023-05-20T07:57:06.984Z,305.00
2023-05-20T07:58:07.043Z,302.00
2023-05-20T07:59:07.071Z,302.00
2023-05-20T08:00:07.115Z,303.00
2023-05-20T08:01:07.188Z,301.00
2023-05-20T08:02:07.315Z,303.00
2023-05-20T08:03:07.414Z,307.00
2023-05-20T08:04:07.319Z,307.00
2023-05-20T08:05:07.325Z,304.00
2023-05-20T08:06:07.318Z,306.00
2023-05-20T08:07:07.355Z,306.00
2023-05-20T08:08:07.447Z,305.00
2023-05-20T08:09:07.448Z,308.00
2023-05-20T08:10:07.460Z,307.00
2023-05-20T08:11:07.464Z,307.00
2023-05-20T08:12:07.466Z,306.00
2023-05-20T08:13:07.513Z,306.00
2023-05-20T08:14:07.504Z,305.00
2023-05-20T08:15:07.533Z,304.00
2023-05-20T08:16:07.533Z,303.00
2023-05-20T08:17:07.697Z,302.00
2023-05-20T08:18:07.584Z,304.00
2023-05-20T08:19:07.589Z,303.00
2023-05-20T08:20:07.551Z,303.00
2023-05-20T08:21:07.555Z,302.00
2023-05-20T08:22:07.572Z,302.00
2023-05-20T08:23:07.581Z,304.00
2023-05-20T08:24:07.628Z,306.00
2023-05-20T08:25:07.687Z,307.00
2023-05-20T08:26:07.762Z,308.00
2023-05-20T08:27:07.745Z,307.00
2023-05-20T08:28:07.774Z,307.00
2023-05-20T08:29:07.826Z,307.00
2023-05-20T08:30:07.846Z,305.00
2023-05-20T08:31:08.054Z,304.00
2023-05-20T08:32:08.005Z,304.00
2023-05-20T08:33:08.097Z,302.00
2023-05-20T08:34:08.072Z,302.00
2023-05-20T08:35:08.163Z,299.00
2023-05-20T08:36:08.080Z,301.00
2023-05-20T08:37:08.140Z,301.00
2023-05-20T08:38:08.219Z,301.00
2023-05-20T08:39:08.261Z,302.00
2023-05-20T08:40:08.262Z,300.00
2023-05-20T08:41:08.316Z,300.00
2023-05-20T08:42:08.329Z,302.00
2023-05-20T08:43:08.390Z,303.00
2023-05-20T08:44:08.391Z,303.00
2023-05-20T08:45:08.455Z,306.00
2023-05-20T08:46:08.488Z,303.00
2023-05-20T08:47:08.532Z,303.00
2023-05-20T08:48:08.557Z,304.00
2023-05-20T08:49:08.532Z,303.00
2023-05-20T08:50:08.569Z,306.00
2023-05-20T08:51:08.581Z,307.00
2023-05-20T08:52:08.597Z,309.00
2023-05-20T08:53:08.668Z,309.00
2023-05-20T08:54:08.790Z,308.00
2023-05-20T08:55:08.706Z,310.00
2023-05-20T08:56:08.720Z,310.00
2023-05-20T08:57:08.823Z,310.00
2023-05-20T08:58:08.804Z,309.00
2023-05-20T08:59:08.854Z,308.00
2023-05-20T09:00:08.854Z,308.00
2023-05-20T09:01:08.856Z,308.00
2023-05-20T09:02:09.001Z,306.00
2023-05-20T09:03:09.578Z,306.00
2023-05-20T09:04:08.950Z,306.00
2023-05-20T09:05:09.087Z,306.00
2023-05-20T09:06:08.990Z,309.00
2023-05-20T09:07:09.003Z,308.00
2023-05-20T09:08:09.075Z,306.00
2023-05-20T09:09:09.088Z,306.00
2023-05-20T09:10:09.136Z,305.00
2023-05-20T09:11:09.203Z,306.00
2023-05-20T09:12:09.126Z,308.00
2023-05-20T09:13:09.160Z,307.00
2023-05-20T09:14:09.224Z,310.00
2023-05-20T09:15:09.228Z,310.00
2023-05-20T09:16:09.287Z,310.00
2023-05-20T09:17:09.241Z,310.00
2023-05-20T09:18:09.417Z,310.00
2023-05-20T09:19:09.370Z,309.00
2023-05-20T09:20:09.337Z,308.00
2023-05-20T09:21:09.367Z,308.00
2023-05-20T09:22:09.374Z,310.00
2023-05-20T09:23:09.387Z,311.00
2023-05-20T09:24:09.528Z,309.00
2023-05-20T09:25:09.509Z,310.00
2023-05-20T09:26:09.513Z,312.00
2023-05-20T09:27:09.516Z,312.00
2023-05-20T09:28:09.546Z,312.00
2023-05-20T09:29:09.561Z,311.00
2023-05-20T09:30:09.633Z,309.00
2023-05-20T09:31:09.766Z,310.00
2023-05-20T09:32:09.877Z,312.00
2023-05-20T09:33:09.994Z,310.00
2023-05-20T09:34:10.012Z,311.00
2023-05-20T09:35:10.153Z,311.00
2023-05-20T09:36:10.082Z,311.00
2023-05-20T09:37:10.092Z,312.00
2023-05-20T09:38:10.122Z,311.00
2023-05-20T09:39:10.114Z,313.00
2023-05-20T09:40:10.124Z,313.00
2023-05-20T09:41:10.152Z,310.00
2023-05-20T09:42:10.241Z,309.00
2023-05-20T09:43:10.352Z,310.00
2023-05-20T09:44:10.360Z,310.00
2023-05-20T09:45:10.365Z,312.00
2023-05-20T09:46:10.392Z,311.00
2023-05-20T09:47:10.385Z,310.00
2023-05-20T09:48:10.401Z,311.00
2023-05-20T09:49:10.466Z,311.00
2023-05-20T09:50:10.548Z,312.00
2023-05-20T09:51:10.596Z,313.00
2023-05-20T09:52:10.546Z,313.00
2023-05-20T09:53:10.563Z,314.00
2023-05-20T09:54:10.546Z,314.00
2023-05-20T09:55:10.642Z,311.00
2023-05-20T09:56:10.596Z,309.00
2023-05-20T09:57:10.572Z,309.00
2023-05-20T09:58:10.631Z,309.00
2023-05-20T09:59:10.616Z,309.00
2023-05-20T10:00:10.704Z,310.00
2023-05-20T10:01:10.715Z,310.00
2023-05-20T10:02:10.841Z,310.00
2023-05-20T10:03:10.854Z,310.00
2023-05-20T10:04:10.835Z,313.00
2023-05-20T10:05:10.899Z,314.00
2023-05-20T10:06:10.922Z,314.00
2023-05-20T10:07:11.022Z,314.00
2023-05-20T10:08:11.059Z,316.00
2023-05-20T10:09:11.112Z,316.00
2023-05-20T10:10:11.485Z,319.00
2023-05-20T10:11:11.248Z,318.00
2023-05-20T10:12:11.343Z,316.00
2023-05-20T10:13:11.365Z,315.00
2023-05-20T10:14:11.422Z,314.00
2023-05-20T10:15:11.518Z,312.00
2023-05-20T10:16:11.564Z,314.00
2023-05-20T10:17:11.627Z,316.00
2023-05-20T10:18:11.653Z,315.00
2023-05-20T10:19:12.004Z,315.00
2023-05-20T10:20:11.847Z,316.00
2023-05-20T10:21:11.834Z,312.00
2023-05-20T10:22:11.947Z,312.00
2023-05-20T10:23:11.941Z,311.00
2023-05-20T10:24:12.049Z,309.00
2023-05-20T10:25:12.246Z,310.00
2023-05-20T10:26:12.143Z,310.00
2023-05-20T10:27:12.206Z,311.00
2023-05-20T10:28:12.212Z,312.00
2023-05-20T10:29:12.416Z,313.00
2023-05-20T10:30:12.348Z,316.00
2023-05-20T10:31:12.397Z,313.00
2023-05-20T10:32:12.986Z,314.00
2023-05-20T10:33:12.610Z,312.00
2023-05-20T10:34:12.549Z,314.00
2023-05-20T10:35:12.569Z,314.00
2023-05-20T10:36:12.621Z,314.00
2023-05-20T10:37:12.641Z,314.00
2023-05-20T10:38:12.730Z,311.00
2023-05-20T10:39:12.752Z,310.00
2023-05-20T10:40:12.803Z,309.00
2023-05-20T10:41:12.815Z,311.00
2023-05-20T10:42:12.890Z,313.00
2023-05-20T10:43:12.919Z,315.00
2023-05-20T10:44:12.931Z,313.00
2023-05-20T10:45:13.021Z,313.00
2023-05-20T10:46:26.274Z,313.00
2023-05-20T10:47:24.847Z,312.00
2023-05-20T10:48:14.075Z,314.00
2023-05-20T10:49:13.113Z,314.00
2023-05-20T10:50:13.010Z,314.00
2023-05-20T10:51:12.986Z,312.00
2023-05-20T10:52:12.985Z,311.00
2023-05-20T10:53:21.734Z,311.00
2023-05-20T10:54:13.978Z,309.00
2023-05-20T10:55:13.105Z,309.00
2023-05-20T10:56:12.950Z,307.00
2023-05-20T10:57:12.973Z,310.00
2023-05-20T10:58:12.947Z,309.00
2023-05-20T10:59:13.000Z,311.00
2023-05-20T11:00:12.984Z,311.00
2023-05-20T11:01:12.970Z,314.00
2023-05-20T11:02:12.928Z,314.00
2023-05-20T11:03:13.082Z,313.00
2023-05-20T11:04:13.050Z,313.00
2023-05-20T11:05:12.903Z,313.00
2023-05-20T11:06:12.935Z,316.00
2023-05-20T11:07:12.935Z,316.00
2023-05-20T11:08:27.167Z,315.00
2023-05-20T11:09:13.963Z,315.00
2023-05-20T11:10:12.885Z,314.00
2023-05-20T11:11:12.878Z,314.00
2023-05-20T11:12:12.878Z,313.00
2023-05-20T11:13:12.912Z,309.00
2023-05-20T11:14:12.886Z,310.00
2023-05-20T11:15:12.893Z,310.00
2023-05-20T11:16:12.877Z,309.00
2023-05-20T11:17:12.882Z,310.00
2023-05-20T11:18:12.885Z,311.00
2023-05-20T11:19:12.907Z,313.00
2023-05-20T11:20:12.854Z,313.00
2023-05-20T11:21:12.865Z,314.00
2023-05-20T11:22:12.921Z,310.00
2023-05-20T11:23:12.790Z,309.00
2023-05-20T11:24:12.835Z,309.00
2023-05-20T11:25:12.831Z,307.00
2023-05-20T11:26:12.814Z,307.00
2023-05-20T11:27:12.833Z,308.00
2023-05-20T11:28:12.777Z,309.00
2023-05-20T11:29:12.793Z,308.00
2023-05-20T11:30:12.832Z,309.00
2023-05-20T11:31:12.826Z,307.00
2023-05-20T11:32:12.904Z,306.00
2023-05-20T11:33:12.942Z,305.00
2023-05-20T11:34:12.870Z,306.00
2023-05-20T11:35:12.903Z,306.00
2023-05-20T11:36:23.876Z,307.00
2023-05-20T11:37:13.909Z,308.00
2023-05-20T11:38:12.874Z,308.00
2023-05-20T11:39:12.896Z,309.00
2023-05-20T11:40:12.915Z,309.00
2023-05-20T11:41:12.879Z,309.00
2023-05-20T11:42:12.849Z,311.00
2023-05-20T11:43:12.875Z,309.00
2023-05-20T11:44:12.868Z,310.00
2023-05-20T11:45:12.833Z,308.00
2023-05-20T11:46:12.907Z,309.00
2023-05-20T11:47:12.836Z,309.00
2023-05-20T11:48:13.003Z,311.00
2023-05-20T11:49:12.833Z,309.00
2023-05-20T11:50:12.854Z,308.00
2023-05-20T11:51:12.798Z,306.00
2023-05-20T11:52:12.795Z,303.00
2023-05-20T11:53:12.799Z,301.00
2023-05-20T11:54:12.821Z,301.00
2023-05-20T11:55:12.796Z,300.00
2023-05-20T11:56:12.763Z,303.00
2023-05-20T11:57:12.776Z,305.00
2023-05-20T11:58:12.782Z,305.00
2023-05-20T11:59:12.758Z,305.00
2023-05-20T12:00:12.773Z,305.00
2023-05-20T12:01:21.748Z,307.00
2023-05-20T12:02:15.992Z,309.00
2023-05-20T12:03:12.823Z,308.00
2023-05-20T12:04:12.878Z,308.00
2023-05-20T12:05:12.741Z,309.00
2023-05-20T12:06:12.736Z,310.00
2023-05-20T12:07:12.721Z,309.00
2023-05-20T12:08:12.699Z,311.00
2023-05-20T12:09:12.703Z,310.00
2023-05-20T12:10:12.707Z,309.00
2023-05-20T12:11:12.713Z,312.00
2023-05-20T12:12:12.671Z,312.00
2023-05-20T12:13:12.692Z,314.00
2023-05-20T12:14:12.656Z,312.00
2023-05-20T12:15:12.657Z,312.00
2023-05-20T12:16:12.679Z,314.00
2023-05-20T12:17:12.646Z,314.00
2023-05-20T12:18:12.720Z,312.00
2023-05-20T12:19:12.637Z,310.00
2023-05-20T12:20:12.643Z,311.00
2023-05-20T12:21:12.627Z,313.00
2023-05-20T12:22:12.616Z,313.00
2023-05-20T12:23:12.611Z,312.00
2023-05-20T12:24:12.603Z,313.00
2023-05-20T12:25:13.072Z,312.00
2023-05-20T12:26:12.614Z,312.00
2023-05-20T12:27:12.601Z,312.00
2023-05-20T12:28:12.587Z,309.00
2023-05-20T12:29:12.604Z,310.00